Time;durP1;ratioP1;P1;durP2;ratioP2;P2;SDS_P1;SDS_P2;PMS_P1;PMS_P2;Temp;Humidity;BMP_temperature;BMP_pressure;BME280_temperature;BME280_humidity;BME280_pressure;Samples;Min_cycle;Max_cycle;Signal;HPM_P1;HPM_P2
2022/07/30 00:00:10;;;;;;;2.80;0.70;;;;;;;;;;5075075;28;20028;-74
2022/07/30 00:02:36;;;;;;;3.45;1.00;;;;;;;;;;5079389;28;20040;-74
2022/07/30 00:05:03;;;;;;;4.47;0.60;;;;;;;;;;5073474;28;20036;-74
2022/07/30 00:07:29;;;;;;;3.10;1.00;;;;;;;;;;5079019;28;20032;-74
2022/07/30 00:09:55;;;;;;;2.85;0.80;;;;;;;;;;5083109;28;20097;-74
2022/07/30 00:12:21;;;;;;;2.00;1.02;;;;;;;;;;5073377;28;20075;-74
2022/07/30 00:14:47;;;;;;;3.28;1.65;;;;;;;;;;5079747;28;20101;-75
2022/07/30 00:17:13;;;;;;;5.05;1.58;;;;;;;;;;5079053;28;20580;-74
2022/07/30 00:19:39;;;;;;;7.82;1.90;;;;;;;;;;5077498;28;20089;-74
2022/07/30 00:22:05;;;;;;;3.45;1.30;;;;;;;;;;5075546;28;20077;-74
2022/07/30 00:24:31;;;;;;;5.90;1.65;;;;;;;;;;5073810;28;20056;-74
2022/07/30 00:26:57;;;;;;;5.35;1.50;;;;;;;;;;5072649;28;20136;-74
2022/07/30 00:29:24;;;;;;;3.08;1.10;;;;;;;;;;5070652;28;20804;-75
2022/07/30 00:31:50;;;;;;;5.53;1.17;;;;;;;;;;5080505;28;20029;-74
2022/07/30 00:34:16;;;;;;;4.15;0.98;;;;;;;;;;5069637;28;20669;-74
2022/07/30 00:36:42;;;;;;;2.38;1.00;;;;;;;;;;5076395;28;20047;-74
2022/07/30 00:39:08;;;;;;;3.38;1.40;;;;;;;;;;5082206;28;20045;-74
2022/07/30 00:41:36;;;;;;;2.67;1.15;;;;;;;;;;5077334;28;21032;-74
2022/07/30 00:44:03;;;;;;;4.50;1.10;;;;;;;;;;5070297;28;20600;-74
2022/07/30 00:46:29;;;;;;;1.77;0.80;;;;;;;;;;5080312;28;20032;-74
2022/07/30 00:48:55;;;;;;;1.65;0.80;;;;;;;;;;5074857;28;20032;-74
2022/07/30 00:51:21;;;;;;;2.22;0.98;;;;;;;;;;5080706;28;20051;-74
2022/07/30 00:53:47;;;;;;;5.82;1.90;;;;;;;;;;5075068;28;20072;-74
2022/07/30 00:56:13;;;;;;;3.70;1.90;;;;;;;;;;5072033;28;20115;-74
2022/07/30 00:58:39;;;;;;;5.30;1.77;;;;;;;;;;5079695;28;20106;-74
2022/07/30 01:01:05;;;;;;;2.22;1.00;;;;;;;;;;5078332;28;20115;-74
2022/07/30 01:03:31;;;;;;;4.07;1.55;;;;;;;;;;5069636;28;20428;-74
2022/07/30 01:05:57;;;;;;;2.42;1.13;;;;;;;;;;5073792;28;20040;-74
2022/07/30 01:08:23;;;;;;;1.83;1.00;;;;;;;;;;5071099;28;20097;-74
2022/07/30 01:10:49;;;;;;;2.95;1.13;;;;;;;;;;5072624;28;20032;-74
2022/07/30 01:13:15;;;;;;;3.60;1.23;;;;;;;;;;5072731;28;20077;-74
2022/07/30 01:15:41;;;;;;;4.22;1.20;;;;;;;;;;5070048;28;20119;-74
2022/07/30 01:18:08;;;;;;;1.67;0.70;;;;;;;;;;5070869;28;20032;-74
2022/07/30 01:20:37;;;;;;;2.33;0.70;;;;;;;;;;5071773;28;20062;-74
2022/07/30 01:23:10;;;;;;;2.50;0.73;;;;;;;;;;5076381;28;20074;-74
2022/07/30 01:25:54;;;;;;;6.13;0.65;;;;;;;;;;5077887;28;20059;-74
2022/07/30 01:28:23;;;;;;;6.00;1.00;;;;;;;;;;5073366;28;20025;-74
2022/07/30 01:30:50;;;;;;;3.55;0.85;;;;;;;;;;5079000;28;20610;-74
2022/07/30 01:33:18;;;;;;;4.45;1.17;;;;;;;;;;5069841;28;20032;-74
2022/07/30 01:35:45;;;;;;;3.95;1.10;;;;;;;;;;5072631;28;20033;-74
2022/07/30 01:38:12;;;;;;;1.70;0.77;;;;;;;;;;5071950;28;20526;-74
2022/07/30 01:40:39;;;;;;;3.75;0.88;;;;;;;;;;5071878;28;20044;-74
2022/07/30 01:43:06;;;;;;;2.88;1.10;;;;;;;;;;5074335;28;20028;-74
2022/07/30 01:45:32;;;;;;;3.70;1.25;;;;;;;;;;5068601;28;20032;-74
2022/07/30 01:47:59;;;;;;;4.60;1.75;;;;;;;;;;5077155;28;20028;-74
2022/07/30 01:50:27;;;;;;;2.72;0.80;;;;;;;;;;5077047;28;20067;-74
2022/07/30 01:52:54;;;;;;;3.08;1.48;;;;;;;;;;5073057;28;20029;-74
2022/07/30 01:55:24;;;;;;;4.07;1.25;;;;;;;;;;5078649;28;20078;-74
2022/07/30 01:57:50;;;;;;;2.90;1.45;;;;;;;;;;5078335;28;20572;-74
2022/07/30 02:00:17;;;;;;;2.67;1.02;;;;;;;;;;5071704;28;20090;-74
2022/07/30 02:02:43;;;;;;;4.20;1.30;;;;;;;;;;5073688;28;20389;-74
2022/07/30 02:05:09;;;;;;;3.17;1.00;;;;;;;;;;5071025;28;20031;-74
2022/07/30 02:07:42;;;;;;;4.13;1.10;;;;;;;;;;5072838;28;20036;-74
2022/07/30 02:10:13;;;;;;;2.20;0.90;;;;;;;;;;5075038;28;20031;-74
2022/07/30 02:12:42;;;;;;;2.25;1.10;;;;;;;;;;5075490;28;20043;-74
2022/07/30 02:15:11;;;;;;;3.20;1.00;;;;;;;;;;5074063;28;20016;-74
2022/07/30 02:17:43;;;;;;;3.50;1.13;;;;;;;;;;5072890;28;20110;-74
2022/07/30 02:20:11;;;;;;;3.35;1.15;;;;;;;;;;5072366;28;20028;-74
2022/07/30 02:22:39;;;;;;;4.53;1.90;;;;;;;;;;5070875;28;20036;-74
2022/07/30 02:25:06;;;;;;;3.05;1.10;;;;;;;;;;5074202;28;20028;-74
2022/07/30 02:27:33;;;;;;;3.38;0.98;;;;;;;;;;5079508;28;20063;-74
2022/07/30 02:30:00;;;;;;;6.05;1.23;;;;;;;;;;5071370;28;20028;-74
2022/07/30 02:32:26;;;;;;;3.67;1.13;;;;;;;;;;5072650;28;20040;-74
2022/07/30 02:34:56;;;;;;;4.72;1.20;;;;;;;;;;5070651;28;20028;-74
2022/07/30 02:37:24;;;;;;;4.25;1.60;;;;;;;;;;5073200;28;20040;-74
2022/07/30 02:39:51;;;;;;;5.03;1.98;;;;;;;;;;5073739;28;20066;-74
2022/07/30 02:42:19;;;;;;;2.28;0.95;;;;;;;;;;5075895;28;20032;-74
2022/07/30 02:44:45;;;;;;;1.85;1.23;;;;;;;;;;5068767;28;20142;-74
2022/07/30 02:47:12;;;;;;;4.18;1.25;;;;;;;;;;5075407;28;20032;-74
2022/07/30 02:49:39;;;;;;;4.13;1.55;;;;;;;;;;5074734;28;20024;-74
2022/07/30 02:52:07;;;;;;;4.30;1.60;;;;;;;;;;5075832;28;20113;-74
2022/07/30 02:54:35;;;;;;;2.78;1.15;;;;;;;;;;5068308;28;20032;-74
2022/07/30 02:57:02;;;;;;;5.10;1.50;;;;;;;;;;5072146;28;20041;-74
2022/07/30 02:59:30;;;;;;;5.13;1.40;;;;;;;;;;5074863;28;20021;-74
2022/07/30 03:01:56;;;;;;;3.53;1.45;;;;;;;;;;5068227;28;20036;-74
2022/07/30 03:04:22;;;;;;;4.82;1.40;;;;;;;;;;5074454;28;20039;-74
2022/07/30 03:06:49;;;;;;;4.32;1.70;;;;;;;;;;5067021;28;20040;-74
2022/07/30 03:09:15;;;;;;;4.20;1.98;;;;;;;;;;5067039;28;20028;-74
2022/07/30 03:11:41;;;;;;;6.38;1.50;;;;;;;;;;5066962;28;20021;-74
2022/07/30 03:14:09;;;;;;;3.47;1.27;;;;;;;;;;5074481;28;20036;-74
2022/07/30 03:16:37;;;;;;;3.60;1.40;;;;;;;;;;5071802;28;20032;-74
2022/07/30 03:19:05;;;;;;;2.63;1.50;;;;;;;;;;5072874;28;20059;-74
2022/07/30 03:21:32;;;;;;;2.88;1.25;;;;;;;;;;5068316;28;20085;-74
2022/07/30 03:23:59;;;;;;;3.33;1.50;;;;;;;;;;5072662;28;20038;-74
2022/07/30 03:26:26;;;;;;;2.53;1.27;;;;;;;;;;5079713;28;20035;-74
2022/07/30 03:28:52;;;;;;;4.22;1.30;;;;;;;;;;5073866;28;20095;-74
2022/07/30 03:31:18;;;;;;;4.10;1.27;;;;;;;;;;5072554;28;20066;-74
2022/07/30 03:33:45;;;;;;;3.60;1.40;;;;;;;;;;5070108;28;23074;-74
2022/07/30 03:36:12;;;;;;;5.18;1.58;;;;;;;;;;5068314;28;20040;-74
2022/07/30 03:38:40;;;;;;;3.45;1.13;;;;;;;;;;5068766;28;20039;-74
2022/07/30 03:41:07;;;;;;;4.72;1.50;;;;;;;;;;5072569;28;20051;-74
2022/07/30 03:43:34;;;;;;;4.32;1.70;;;;;;;;;;5073272;28;20028;-74
2022/07/30 03:46:03;;;;;;;3.03;1.30;;;;;;;;;;5075106;28;20037;-74
2022/07/30 03:48:30;;;;;;;7.30;1.52;;;;;;;;;;5073880;28;20497;-74
2022/07/30 03:50:56;;;;;;;5.10;2.00;;;;;;;;;;5074712;28;20041;-74
2022/07/30 03:53:23;;;;;;;7.03;1.80;;;;;;;;;;5074274;28;20081;-74
2022/07/30 03:55:51;;;;;;;5.20;1.40;;;;;;;;;;5071762;28;20039;-74
2022/07/30 03:58:17;;;;;;;4.63;1.70;;;;;;;;;;5070162;28;20102;-74
2022/07/30 04:00:46;;;;;;;2.47;1.60;;;;;;;;;;5076853;28;20115;-74
2022/07/30 04:03:12;;;;;;;4.55;1.85;;;;;;;;;;5070030;28;20078;-74
2022/07/30 04:05:38;;;;;;;6.43;1.70;;;;;;;;;;5082634;28;20061;-74
2022/07/30 04:08:04;;;;;;;5.07;2.00;;;;;;;;;;5079755;28;20029;-74
2022/07/30 04:10:30;;;;;;;4.35;1.70;;;;;;;;;;5081714;28;20036;-74
2022/07/30 04:12:56;;;;;;;5.90;1.67;;;;;;;;;;5084793;28;20618;-74
2022/07/30 04:15:22;;;;;;;3.38;1.38;;;;;;;;;;5075009;28;20036;-74
2022/07/30 04:17:51;;;;;;;4.57;1.63;;;;;;;;;;5071011;28;20032;-74
2022/07/30 04:20:20;;;;;;;3.53;1.70;;;;;;;;;;5076126;28;20390;-74
2022/07/30 04:22:46;;;;;;;4.43;1.73;;;;;;;;;;5076078;28;20025;-74
2022/07/30 04:25:12;;;;;;;3.13;1.30;;;;;;;;;;5072730;28;20039;-74
2022/07/30 04:27:38;;;;;;;3.72;1.50;;;;;;;;;;5077175;28;20083;-74
2022/07/30 04:30:05;;;;;;;2.38;1.27;;;;;;;;;;5074711;28;20032;-74
2022/07/30 04:32:31;;;;;;;3.58;1.88;;;;;;;;;;5074568;28;20040;-74
2022/07/30 04:34:57;;;;;;;4.30;1.70;;;;;;;;;;5079251;28;20430;-74
2022/07/30 04:37:25;;;;;;;4.03;1.48;;;;;;;;;;5078827;28;20040;-74
2022/07/30 04:39:53;;;;;;;3.58;1.50;;;;;;;;;;5075226;28;20061;-74
2022/07/30 04:42:29;;;;;;;5.10;1.75;;;;;;;;;;5076932;28;20778;-74
2022/07/30 04:44:56;;;;;;;2.45;1.40;;;;;;;;;;5072255;28;20427;-74
2022/07/30 04:47:22;;;;;;;4.28;1.45;;;;;;;;;;5074367;28;20035;-74
2022/07/30 04:49:49;;;;;;;4.30;1.63;;;;;;;;;;5070672;28;20028;-74
2022/07/30 04:52:16;;;;;;;5.57;1.60;;;;;;;;;;5083565;28;20040;-74
2022/07/30 04:54:44;;;;;;;5.93;2.08;;;;;;;;;;5080267;28;20027;-74
2022/07/30 04:57:12;;;;;;;4.63;1.58;;;;;;;;;;5071987;28;20033;-74
2022/07/30 04:59:38;;;;;;;4.00;1.80;;;;;;;;;;5074493;28;20103;-74
2022/07/30 05:02:06;;;;;;;4.35;2.00;;;;;;;;;;5072483;28;20040;-74
2022/07/30 05:04:32;;;;;;;6.75;1.65;;;;;;;;;;5076604;28;20020;-74
2022/07/30 05:06:59;;;;;;;4.90;1.70;;;;;;;;;;5075467;28;20064;-74
2022/07/30 05:09:26;;;;;;;4.70;1.92;;;;;;;;;;5078300;28;20035;-74
2022/07/30 05:11:55;;;;;;;5.00;1.90;;;;;;;;;;5070864;28;20050;-74
2022/07/30 05:14:22;;;;;;;3.28;1.70;;;;;;;;;;5072310;28;20028;-74
2022/07/30 05:16:49;;;;;;;4.47;1.73;;;;;;;;;;5072123;28;20660;-74
2022/07/30 05:19:15;;;;;;;6.57;1.55;;;;;;;;;;5082440;28;20479;-74
2022/07/30 05:21:41;;;;;;;3.47;1.27;;;;;;;;;;5072071;28;20036;-74
2022/07/30 05:24:07;;;;;;;3.08;1.20;;;;;;;;;;5069255;28;20036;-74
2022/07/30 05:26:33;;;;;;;3.22;1.17;;;;;;;;;;5073168;28;20043;-74
2022/07/30 05:28:59;;;;;;;6.95;1.38;;;;;;;;;;5076040;28;20028;-74
2022/07/30 05:31:25;;;;;;;8.30;1.92;;;;;;;;;;5070123;28;20711;-74
2022/07/30 05:33:51;;;;;;;3.72;1.40;;;;;;;;;;5075031;28;20032;-74
2022/07/30 05:36:18;;;;;;;3.33;1.83;;;;;;;;;;5079479;28;20044;-74
2022/07/30 05:38:44;;;;;;;7.03;2.63;;;;;;;;;;5074227;28;20037;-74
2022/07/30 05:41:10;;;;;;;9.82;8.13;;;;;;;;;;5078994;28;20394;-74
2022/07/30 05:43:36;;;;;;;11.45;8.88;;;;;;;;;;5077633;28;20032;-74
2022/07/30 05:46:02;;;;;;;12.95;7.35;;;;;;;;;;5081866;28;20032;-74
2022/07/30 05:48:30;;;;;;;6.00;1.45;;;;;;;;;;5080758;28;20487;-74
2022/07/30 05:50:56;;;;;;;4.18;1.10;;;;;;;;;;5071019;28;20037;-74
2022/07/30 05:53:22;;;;;;;6.07;1.25;;;;;;;;;;5071208;28;20036;-74
2022/07/30 05:55:48;;;;;;;9.10;1.30;;;;;;;;;;5077965;28;20036;-74
2022/07/30 05:58:14;;;;;;;5.53;1.85;;;;;;;;;;5070679;28;20488;-74
2022/07/30 06:00:40;;;;;;;11.35;5.18;;;;;;;;;;5070497;28;20141;-74
2022/07/30 06:03:06;;;;;;;6.22;2.00;;;;;;;;;;5074283;28;20028;-74
2022/07/30 06:05:32;;;;;;;7.18;2.70;;;;;;;;;;5071051;28;20398;-74
2022/07/30 06:07:59;;;;;;;5.05;2.58;;;;;;;;;;5073906;28;20603;-74
2022/07/30 06:10:25;;;;;;;7.28;1.77;;;;;;;;;;5078643;28;20036;-74
2022/07/30 06:12:51;;;;;;;5.40;1.50;;;;;;;;;;5076281;28;20100;-74
2022/07/30 06:15:17;;;;;;;8.45;1.20;;;;;;;;;;5072323;28;20064;-74
2022/07/30 06:17:44;;;;;;;5.53;1.63;;;;;;;;;;5069952;28;20032;-74
2022/07/30 06:20:14;;;;;;;2.50;1.45;;;;;;;;;;5077284;28;20039;-74
2022/07/30 06:22:40;;;;;;;6.03;1.83;;;;;;;;;;5070165;28;20029;-73
2022/07/30 06:25:06;;;;;;;5.88;1.80;;;;;;;;;;5075045;28;20036;-74
2022/07/30 06:27:33;;;;;;;4.13;1.88;;;;;;;;;;5070074;28;20028;-74
2022/07/30 06:30:00;;;;;;;3.42;1.30;;;;;;;;;;5082195;28;20465;-74
2022/07/30 06:32:26;;;;;;;6.00;1.20;;;;;;;;;;5079327;28;20303;-74
2022/07/30 06:34:52;;;;;;;2.45;0.90;;;;;;;;;;5077739;28;20044;-74
2022/07/30 06:37:18;;;;;;;4.60;1.10;;;;;;;;;;5073686;28;20032;-75
2022/07/30 06:39:44;;;;;;;4.00;1.10;;;;;;;;;;5074392;28;22265;-74
2022/07/30 06:42:10;;;;;;;5.15;1.02;;;;;;;;;;5072794;28;20097;-74
2022/07/30 06:44:36;;;;;;;3.60;0.90;;;;;;;;;;5077117;28;20056;-74
2022/07/30 06:47:02;;;;;;;7.25;1.42;;;;;;;;;;5076189;28;20865;-74
2022/07/30 06:49:30;;;;;;;4.63;1.00;;;;;;;;;;5072013;28;20116;-74
2022/07/30 06:51:56;;;;;;;4.88;1.17;;;;;;;;;;5076868;28;20032;-74
2022/07/30 06:54:22;;;;;;;2.72;1.00;;;;;;;;;;5070166;28;20040;-73
2022/07/30 06:56:48;;;;;;;4.32;1.00;;;;;;;;;;5079252;28;20429;-74
2022/07/30 06:59:14;;;;;;;4.20;1.10;;;;;;;;;;5072084;28;20105;-74
2022/07/30 07:01:40;;;;;;;7.28;1.40;;;;;;;;;;5075356;28;20111;-73
2022/07/30 07:04:06;;;;;;;5.63;1.20;;;;;;;;;;5080197;28;20427;-74
2022/07/30 07:06:32;;;;;;;3.15;1.10;;;;;;;;;;5069693;28;20058;-73
2022/07/30 07:08:58;;;;;;;4.75;1.35;;;;;;;;;;5076239;28;20065;-74
2022/07/30 07:11:24;;;;;;;2.60;1.00;;;;;;;;;;5073133;28;20033;-74
2022/07/30 07:13:50;;;;;;;2.80;0.98;;;;;;;;;;5070967;28;20106;-74
2022/07/30 07:16:20;;;;;;;4.63;0.93;;;;;;;;;;5066524;28;20225;-73
2022/07/30 07:18:47;;;;;;;5.82;1.15;;;;;;;;;;5067769;28;20059;-74
2022/07/30 07:21:13;;;;;;;4.18;1.58;;;;;;;;;;5070441;28;20041;-73
2022/07/30 07:23:39;;;;;;;6.32;1.40;;;;;;;;;;5068312;28;20028;-74
2022/07/30 07:26:05;;;;;;;4.88;1.50;;;;;;;;;;5067785;28;20097;-73
2022/07/30 07:28:31;;;;;;;3.92;1.08;;;;;;;;;;5064791;28;20029;-74
2022/07/30 07:30:57;;;;;;;4.72;1.10;;;;;;;;;;5066025;28;20040;-74
2022/07/30 07:33:23;;;;;;;12.18;1.45;;;;;;;;;;5063637;28;20036;-74
2022/07/30 07:35:49;;;;;;;5.93;1.10;;;;;;;;;;5068239;28;20044;-74
2022/07/30 07:38:15;;;;;;;5.03;1.48;;;;;;;;;;5066842;28;20036;-74
2022/07/30 07:40:41;;;;;;;6.15;2.13;;;;;;;;;;5069784;28;20051;-75
2022/07/30 07:43:07;;;;;;;4.32;1.75;;;;;;;;;;5063654;28;20028;-74
2022/07/30 07:45:33;;;;;;;7.32;1.40;;;;;;;;;;5071545;28;20635;-75
2022/07/30 07:47:59;;;;;;;5.70;1.30;;;;;;;;;;5068518;28;20063;-75
2022/07/30 07:50:25;;;;;;;3.42;1.25;;;;;;;;;;5068270;28;20111;-74
2022/07/30 07:52:51;;;;;;;3.35;1.10;;;;;;;;;;5071675;28;20059;-75
2022/07/30 07:55:17;;;;;;;5.88;1.20;;;;;;;;;;5072439;28;20054;-75
2022/07/30 07:57:44;;;;;;;3.47;1.38;;;;;;;;;;5067819;28;20155;-75
2022/07/30 08:00:16;;;;;;;4.97;1.13;;;;;;;;;;5071730;28;20044;-75
2022/07/30 08:02:43;;;;;;;4.75;1.17;;;;;;;;;;5070064;28;20025;-74
2022/07/30 08:05:11;;;;;;;4.05;1.10;;;;;;;;;;5073702;28;20510;-74
2022/07/30 08:07:37;;;;;;;2.97;1.10;;;;;;;;;;5071131;28;20130;-76
2022/07/30 08:10:03;;;;;;;3.72;1.08;;;;;;;;;;5072866;28;20107;-75
2022/07/30 08:12:30;;;;;;;3.00;1.17;;;;;;;;;;5069643;28;20032;-75
2022/07/30 08:14:56;;;;;;;3.95;1.20;;;;;;;;;;5071386;28;20034;-75
2022/07/30 08:17:22;;;;;;;4.05;1.50;;;;;;;;;;5072584;28;20032;-75
2022/07/30 08:19:48;;;;;;;4.43;0.80;;;;;;;;;;5073951;28;20544;-75
2022/07/30 08:22:14;;;;;;;4.53;1.00;;;;;;;;;;5067481;28;20094;-75
2022/07/30 08:24:40;;;;;;;2.33;1.00;;;;;;;;;;5070178;28;20070;-75
2022/07/30 08:27:06;;;;;;;2.58;1.05;;;;;;;;;;5067225;28;20494;-76
2022/07/30 08:29:32;;;;;;;3.97;1.10;;;;;;;;;;5074653;28;20497;-76
2022/07/30 08:31:58;;;;;;;4.68;1.30;;;;;;;;;;5076311;28;20028;-76
2022/07/30 08:34:24;;;;;;;5.35;1.10;;;;;;;;;;5071738;28;20027;-76
2022/07/30 08:36:50;;;;;;;4.80;1.17;;;;;;;;;;5072415;28;20482;-76
2022/07/30 08:39:16;;;;;;;2.80;1.23;;;;;;;;;;5069424;28;20032;-76
2022/07/30 08:41:42;;;;;;;2.45;0.90;;;;;;;;;;5070981;28;20480;-75
2022/07/30 08:44:10;;;;;;;5.15;1.10;;;;;;;;;;5069884;28;20061;-75
2022/07/30 08:46:40;;;;;;;4.32;1.00;;;;;;;;;;5068326;28;20032;-76
2022/07/30 08:49:06;;;;;;;3.55;1.20;;;;;;;;;;5073001;28;20181;-76
2022/07/30 08:51:34;;;;;;;3.53;0.80;;;;;;;;;;5070570;28;20067;-76
2022/07/30 08:54:00;;;;;;;2.67;0.90;;;;;;;;;;5072906;28;20067;-76
2022/07/30 08:56:27;;;;;;;5.93;1.30;;;;;;;;;;5069721;28;20510;-76
2022/07/30 08:58:53;;;;;;;5.43;0.95;;;;;;;;;;5073746;28;20027;-76
2022/07/30 09:01:21;;;;;;;3.20;1.00;;;;;;;;;;5071022;28;20041;-76
2022/07/30 09:03:47;;;;;;;6.18;1.10;;;;;;;;;;5072078;28;20028;-76
2022/07/30 09:06:14;;;;;;;3.40;1.27;;;;;;;;;;5072289;28;20071;-76
2022/07/30 09:08:40;;;;;;;6.05;1.05;;;;;;;;;;5073314;28;20111;-76
2022/07/30 09:11:06;;;;;;;4.97;0.80;;;;;;;;;;5070054;28;20036;-76
2022/07/30 09:13:34;;;;;;;6.18;1.00;;;;;;;;;;5074707;28;20032;-76
2022/07/30 09:16:00;;;;;;;8.68;1.10;;;;;;;;;;5073176;28;20093;-76
2022/07/30 09:18:40;;;;;;;7.18;1.52;;;;;;;;;;5071645;28;20082;-76
2022/07/30 09:21:18;;;;;;;6.18;0.90;;;;;;;;;;5074156;28;20032;-76
2022/07/30 09:23:59;;;;;;;5.50;0.80;;;;;;;;;;5077581;28;20027;-75
2022/07/30 09:26:26;;;;;;;3.83;1.00;;;;;;;;;;5069043;28;20032;-76
2022/07/30 09:28:52;;;;;;;7.03;0.95;;;;;;;;;;5073411;28;20031;-76
2022/07/30 09:31:19;;;;;;;4.05;0.85;;;;;;;;;;5071755;28;20035;-76
2022/07/30 09:33:46;;;;;;;4.15;0.75;;;;;;;;;;5069234;28;20062;-76
2022/07/30 09:36:13;;;;;;;2.42;0.60;;;;;;;;;;5077789;28;20123;-76
2022/07/30 09:38:57;;;;;;;5.88;0.73;;;;;;;;;;5076573;28;20342;-75
2022/07/30 09:41:34;;;;;;;5.07;0.82;;;;;;;;;;5070376;28;20955;-74
2022/07/30 09:44:02;;;;;;;5.40;0.95;;;;;;;;;;5072396;28;20020;-75
2022/07/30 09:46:46;;;;;;;2.30;0.60;;;;;;;;;;5069718;28;20028;-75
2022/07/30 09:49:16;;;;;;;4.05;0.70;;;;;;;;;;5067875;28;20028;-75
2022/07/30 09:51:42;;;;;;;3.28;0.60;;;;;;;;;;5065948;28;20032;-75
2022/07/30 09:54:08;;;;;;;5.03;0.73;;;;;;;;;;5068563;28;20024;-75
2022/07/30 09:56:34;;;;;;;3.72;0.70;;;;;;;;;;5071830;28;20120;-75
2022/07/30 09:59:00;;;;;;;2.20;0.50;;;;;;;;;;5068136;28;20032;-75
2022/07/30 10:01:27;;;;;;;2.53;0.50;;;;;;;;;;5071720;28;20063;-75
2022/07/30 10:03:53;;;;;;;8.65;1.00;;;;;;;;;;5069647;28;20534;-75
2022/07/30 10:06:31;;;;;;;1.88;0.60;;;;;;;;;;5068158;28;20036;-75
2022/07/30 10:08:57;;;;;;;4.65;0.82;;;;;;;;;;5068322;28;20028;-75
2022/07/30 10:11:24;;;;;;;4.60;0.60;;;;;;;;;;5071670;28;20032;-75
2022/07/30 10:13:53;;;;;;;1.70;0.50;;;;;;;;;;5070192;28;20359;-75
2022/07/30 10:16:19;;;;;;;3.58;0.70;;;;;;;;;;5066633;28;20390;-75
2022/07/30 10:18:46;;;;;;;4.03;0.63;;;;;;;;;;5073915;28;20035;-75
2022/07/30 10:21:12;;;;;;;2.28;0.60;;;;;;;;;;5066679;28;20032;-75
2022/07/30 10:23:39;;;;;;;4.93;0.75;;;;;;;;;;5072654;28;20027;-75
2022/07/30 10:26:05;;;;;;;4.07;0.77;;;;;;;;;;5071967;28;20060;-75
2022/07/30 10:28:31;;;;;;;1.85;0.52;;;;;;;;;;5068150;28;20056;-75
2022/07/30 10:30:58;;;;;;;3.53;0.60;;;;;;;;;;5071782;28;20111;-75
2022/07/30 10:33:25;;;;;;;3.28;0.55;;;;;;;;;;5066008;28;20039;-75
2022/07/30 10:35:51;;;;;;;5.07;0.50;;;;;;;;;;5073625;28;20051;-75
2022/07/30 10:38:19;;;;;;;7.20;0.70;;;;;;;;;;5074055;28;20141;-75
2022/07/30 10:40:52;;;;;;;4.10;0.55;;;;;;;;;;5067558;28;20477;-75
2022/07/30 10:43:36;;;;;;;3.05;0.57;;;;;;;;;;5065237;28;20464;-75
2022/07/30 10:46:09;;;;;;;3.50;0.50;;;;;;;;;;5070126;28;20028;-75
2022/07/30 10:48:35;;;;;;;1.73;0.50;;;;;;;;;;5069047;28;20051;-75
2022/07/30 10:51:01;;;;;;;1.35;0.52;;;;;;;;;;5073337;28;20039;-75
2022/07/30 10:53:33;;;;;;;1.95;0.73;;;;;;;;;;5074027;28;20040;-75
2022/07/30 10:56:13;;;;;;;2.00;0.40;;;;;;;;;;5071491;28;20082;-75
2022/07/30 10:58:58;;;;;;;3.58;0.70;;;;;;;;;;5071738;28;20075;-75
2022/07/30 11:01:24;;;;;;;2.00;0.57;;;;;;;;;;5069035;28;20032;-75
2022/07/30 11:04:08;;;;;;;2.38;0.50;;;;;;;;;;5068408;28;20035;-76
2022/07/30 11:06:34;;;;;;;2.67;0.75;;;;;;;;;;5067986;28;20036;-76
2022/07/30 11:09:00;;;;;;;1.42;0.47;;;;;;;;;;5067582;28;20362;-76
2022/07/30 11:11:27;;;;;;;1.95;0.40;;;;;;;;;;5066751;28;20522;-76
2022/07/30 11:13:53;;;;;;;1.77;0.40;;;;;;;;;;5068180;28;20043;-74
2022/07/30 11:16:20;;;;;;;2.63;0.40;;;;;;;;;;5071921;28;20035;-74
2022/07/30 11:19:05;;;;;;;2.88;0.43;;;;;;;;;;5068648;28;20144;-74
2022/07/30 11:21:31;;;;;;;2.03;0.40;;;;;;;;;;5078180;28;20415;-74
2022/07/30 11:23:58;;;;;;;2.45;0.30;;;;;;;;;;5073970;28;20024;-73
2022/07/30 11:26:45;;;;;;;1.75;0.40;;;;;;;;;;5073051;28;20111;-73
2022/07/30 11:29:30;;;;;;;3.67;0.40;;;;;;;;;;5074168;28;20032;-73
2022/07/30 11:31:56;;;;;;;1.67;0.38;;;;;;;;;;5076090;28;20050;-73
2022/07/30 11:34:24;;;;;;;2.72;1.00;;;;;;;;;;5072237;28;20085;-73
2022/07/30 11:37:08;;;;;;;1.60;0.52;;;;;;;;;;5072361;28;20139;-73
2022/07/30 11:39:53;;;;;;;2.03;0.40;;;;;;;;;;5077425;28;20055;-73
2022/07/30 11:42:25;;;;;;;1.25;0.50;;;;;;;;;;5075540;28;20032;-73
2022/07/30 11:44:51;;;;;;;5.25;0.43;;;;;;;;;;5075341;28;20048;-73
2022/07/30 11:47:18;;;;;;;5.25;0.50;;;;;;;;;;5077252;28;20040;-73
2022/07/30 11:49:45;;;;;;;1.67;0.50;;;;;;;;;;5076663;28;20119;-73
2022/07/30 11:52:11;;;;;;;1.88;0.40;;;;;;;;;;5074751;28;20036;-73
2022/07/30 11:54:51;;;;;;;1.83;0.28;;;;;;;;;;5072160;28;20031;-73
2022/07/30 11:57:17;;;;;;;1.58;0.30;;;;;;;;;;5067352;28;20085;-73
2022/07/30 11:59:52;;;;;;;0.95;0.40;;;;;;;;;;5072706;28;20566;-73
2022/07/30 12:02:19;;;;;;;1.20;0.38;;;;;;;;;;5072887;28;20041;-73
2022/07/30 12:04:46;;;;;;;1.52;0.30;;;;;;;;;;5071089;28;20031;-73
2022/07/30 12:07:12;;;;;;;3.17;0.50;;;;;;;;;;5070730;28;20845;-73
2022/07/30 12:09:38;;;;;;;2.65;0.50;;;;;;;;;;5084046;28;20471;-73
2022/07/30 12:12:22;;;;;;;1.60;0.30;;;;;;;;;;5070980;28;20032;-73
2022/07/30 12:14:48;;;;;;;2.03;0.63;;;;;;;;;;5079782;28;20024;-73
2022/07/30 12:17:14;;;;;;;1.23;0.32;;;;;;;;;;5072730;28;20040;-73
2022/07/30 12:19:47;;;;;;;17.80;1.00;;;;;;;;;;5073646;28;20115;-74
2022/07/30 12:22:13;;;;;;;9.70;0.60;;;;;;;;;;5071210;28;20068;-73
2022/07/30 12:24:39;;;;;;;4.75;0.73;;;;;;;;;;5071215;28;20032;-73
2022/07/30 12:27:06;;;;;;;9.43;0.80;;;;;;;;;;5072889;28;20416;-73
2022/07/30 12:29:35;;;;;;;9.23;0.50;;;;;;;;;;5068285;28;20465;-73
2022/07/30 12:32:02;;;;;;;6.10;0.70;;;;;;;;;;5067598;28;20033;-73
2022/07/30 12:34:28;;;;;;;4.38;0.50;;;;;;;;;;5073513;28;20028;-73
2022/07/30 12:36:54;;;;;;;1.65;0.40;;;;;;;;;;5072189;28;20036;-73
2022/07/30 12:39:21;;;;;;;1.13;0.30;;;;;;;;;;5072628;28;20071;-73
2022/07/30 12:41:48;;;;;;;2.03;0.40;;;;;;;;;;5073014;28;20408;-73
2022/07/30 12:44:33;;;;;;;3.00;0.60;;;;;;;;;;5074335;28;20036;-73
2022/07/30 12:46:59;;;;;;;1.70;0.40;;;;;;;;;;5079443;28;20028;-73
2022/07/30 12:49:28;;;;;;;1.27;0.30;;;;;;;;;;5076750;28;20179;-73
2022/07/30 12:51:54;;;;;;;1.27;0.20;;;;;;;;;;5071547;28;20067;-73
2022/07/30 12:54:21;;;;;;;4.35;0.50;;;;;;;;;;5069857;28;20043;-73
2022/07/30 12:56:56;;;;;;;1.88;0.40;;;;;;;;;;5073278;28;20054;-73
2022/07/30 12:59:23;;;;;;;2.38;0.30;;;;;;;;;;5075091;28;20036;-73
2022/07/30 13:01:51;;;;;;;1.70;0.30;;;;;;;;;;5070992;28;20042;-73
2022/07/30 13:04:17;;;;;;;1.10;0.20;;;;;;;;;;5069550;28;20123;-73
2022/07/30 13:06:43;;;;;;;1.50;0.35;;;;;;;;;;5070458;28;20051;-73
2022/07/30 13:09:19;;;;;;;1.05;0.30;;;;;;;;;;5076780;28;20591;-73
2022/07/30 13:11:45;;;;;;;1.52;0.40;;;;;;;;;;5072286;28;20586;-73
2022/07/30 13:14:12;;;;;;;2.65;0.40;;;;;;;;;;5073393;28;20041;-73
2022/07/30 13:16:39;;;;;;;1.70;0.20;;;;;;;;;;5073846;28;20060;-73
2022/07/30 13:19:05;;;;;;;0.70;0.30;;;;;;;;;;5070611;28;20043;-73
2022/07/30 13:21:32;;;;;;;1.38;0.30;;;;;;;;;;5071571;28;20029;-73
2022/07/30 13:23:59;;;;;;;0.93;0.35;;;;;;;;;;5071029;28;20480;-73
2022/07/30 13:26:25;;;;;;;1.88;0.40;;;;;;;;;;5075242;28;20563;-73
2022/07/30 13:28:51;;;;;;;1.83;0.40;;;;;;;;;;5069028;28;20033;-73
2022/07/30 13:31:17;;;;;;;1.60;0.43;;;;;;;;;;5069030;28;20029;-73
2022/07/30 13:33:44;;;;;;;2.88;0.35;;;;;;;;;;5072011;28;20037;-73
2022/07/30 13:36:10;;;;;;;0.98;0.30;;;;;;;;;;5067909;28;20032;-73
2022/07/30 13:38:36;;;;;;;1.75;0.40;;;;;;;;;;5071662;28;20035;-73
2022/07/30 13:41:03;;;;;;;0.93;0.35;;;;;;;;;;5071099;28;20048;-73
2022/07/30 13:43:29;;;;;;;0.90;0.30;;;;;;;;;;5075217;28;20055;-73
2022/07/30 13:45:55;;;;;;;1.13;0.40;;;;;;;;;;5077008;28;20070;-73
2022/07/30 13:48:21;;;;;;;0.93;0.40;;;;;;;;;;5071355;28;20037;-73
2022/07/30 13:50:47;;;;;;;1.55;0.30;;;;;;;;;;5072575;28;20452;-73
2022/07/30 13:53:14;;;;;;;3.28;0.40;;;;;;;;;;5076246;28;20035;-73
2022/07/30 13:55:41;;;;;;;2.65;0.38;;;;;;;;;;5070462;28;20066;-73
2022/07/30 13:58:07;;;;;;;0.85;0.40;;;;;;;;;;5075345;28;20036;-73
2022/07/30 14:00:35;;;;;;;0.80;0.30;;;;;;;;;;5073994;28;20042;-73
2022/07/30 14:03:02;;;;;;;2.35;0.52;;;;;;;;;;5072834;28;20027;-73
2022/07/30 14:05:28;;;;;;;3.78;0.30;;;;;;;;;;5073561;28;20169;-73
2022/07/30 14:07:54;;;;;;;1.25;0.57;;;;;;;;;;5073425;28;20125;-73
2022/07/30 14:10:21;;;;;;;1.77;0.30;;;;;;;;;;5069107;28;20398;-74
2022/07/30 14:12:48;;;;;;;1.48;0.40;;;;;;;;;;5070064;28;20036;-74
2022/07/30 14:15:14;;;;;;;2.25;0.70;;;;;;;;;;5078577;28;20043;-74
2022/07/30 14:17:40;;;;;;;2.03;0.40;;;;;;;;;;5074158;28;20472;-74
2022/07/30 14:20:06;;;;;;;0.90;0.38;;;;;;;;;;5072124;28;20469;-73
2022/07/30 14:22:32;;;;;;;0.82;0.30;;;;;;;;;;5070133;28;20087;-73
2022/07/30 14:25:01;;;;;;;2.00;0.30;;;;;;;;;;5070044;28;20768;-73
2022/07/30 14:27:27;;;;;;;0.98;0.40;;;;;;;;;;5071191;28;20040;-73
2022/07/30 14:29:53;;;;;;;1.17;0.40;;;;;;;;;;5069236;28;20027;-73
2022/07/30 14:32:19;;;;;;;1.88;0.52;;;;;;;;;;5068836;28;20082;-74
2022/07/30 14:34:45;;;;;;;0.70;0.30;;;;;;;;;;5071020;28;20036;-73
2022/07/30 14:37:11;;;;;;;1.30;0.32;;;;;;;;;;5066918;28;20420;-73
2022/07/30 14:39:37;;;;;;;5.20;0.40;;;;;;;;;;5071055;28;20408;-73
2022/07/30 14:42:05;;;;;;;0.50;0.30;;;;;;;;;;5069983;28;20113;-73
2022/07/30 14:44:31;;;;;;;1.45;0.40;;;;;;;;;;5069354;28;20020;-73